sensor_id;sensor_type;location;lat;lon;timestamp;temperature;humidity
40960;DHT22;27842;52.272;8.052;2023-07-02T00:02:24;17.40;99.60
40960;DHT22;27842;52.272;8.052;2023-07-02T00:04:49;17.40;99.50
40960;DHT22;27842;52.272;8.052;2023-07-02T00:07:15;17.40;99.50
40960;DHT22;27842;52.272;8.052;2023-07-02T00:09:40;17.40;99.50
40960;DHT22;27842;52.272;8.052;2023-07-02T00:12:06;17.30;99.70
40960;DHT22;27842;52.272;8.052;2023-07-02T00:14:32;17.30;99.60
40960;DHT22;27842;52.272;8.052;2023-07-02T00:16:57;17.30;99.50
40960;DHT22;27842;52.272;8.052;2023-07-02T00:19:23;17.30;99.60
40960;DHT22;27842;52.272;8.052;2023-07-02T00:21:48;17.30;99.60
40960;DHT22;27842;52.272;8.052;2023-07-02T00:24:15;17.30;99.50
40960;DHT22;27842;52.272;8.052;2023-07-02T00:26:41;17.30;99.60
40960;DHT22;27842;52.272;8.052;2023-07-02T00:29:06;17.30;99.60
40960;DHT22;27842;52.272;8.052;2023-07-02T00:31:33;17.30;99.50
40960;DHT22;27842;52.272;8.052;2023-07-02T00:33:59;17.30;99.60
40960;DHT22;27842;52.272;8.052;2023-07-02T00:36:26;17.30;99.70
40960;DHT22;27842;52.272;8.052;2023-07-02T00:38:51;17.30;99.70
40960;DHT22;27842;52.272;8.052;2023-07-02T00:41:17;17.30;99.60
40960;DHT22;27842;52.272;8.052;2023-07-02T00:43:43;17.30;99.80
40960;DHT22;27842;52.272;8.052;2023-07-02T00:46:18;17.30;99.60
40960;DHT22;27842;52.272;8.052;2023-07-02T00:48:47;17.30;99.60
40960;DHT22;27842;52.272;8.052;2023-07-02T00:51:13;17.30;99.70
40960;DHT22;27842;52.272;8.052;2023-07-02T00:53:40;17.30;99.70
40960;DHT22;27842;52.272;8.052;2023-07-02T00:56:05;17.30;99.50
40960;DHT22;27842;52.272;8.052;2023-07-02T00:58:31;17.30;99.50
40960;DHT22;27842;52.272;8.052;2023-07-02T01:00:56;17.30;99.50
40960;DHT22;27842;52.272;8.052;2023-07-02T01:03:22;17.30;99.50
40960;DHT22;27842;52.272;8.052;2023-07-02T01:05:47;17.30;99.50
40960;DHT22;27842;52.272;8.052;2023-07-02T01:08:13;17.30;99.40
40960;DHT22;27842;52.272;8.052;2023-07-02T01:10:39;17.30;99.50
40960;DHT22;27842;52.272;8.052;2023-07-02T01:13:12;17.30;99.50
40960;DHT22;27842;52.272;8.052;2023-07-02T01:15:40;17.30;99.40
40960;DHT22;27842;52.272;8.052;2023-07-02T01:18:05;17.40;99.60
40960;DHT22;27842;52.272;8.052;2023-07-02T01:20:30;17.40;99.40
40960;DHT22;27842;52.272;8.052;2023-07-02T01:22:56;17.40;99.40
40960;DHT22;27842;52.272;8.052;2023-07-02T01:25:22;17.40;99.40
40960;DHT22;27842;52.272;8.052;2023-07-02T01:27:50;17.40;99.60
40960;DHT22;27842;52.272;8.052;2023-07-02T01:30:15;17.40;99.60
40960;DHT22;27842;52.272;8.052;2023-07-02T01:32:41;17.30;99.50
40960;DHT22;27842;52.272;8.052;2023-07-02T01:35:07;17.40;99.60
40960;DHT22;27842;52.272;8.052;2023-07-02T01:37:33;17.40;99.70
40960;DHT22;27842;52.272;8.052;2023-07-02T01:40:02;17.40;99.60
40960;DHT22;27842;52.272;8.052;2023-07-02T01:42:28;17.40;99.90
40960;DHT22;27842;52.272;8.052;2023-07-02T01:44:54;17.40;99.70
40960;DHT22;27842;52.272;8.052;2023-07-02T01:47:19;17.30;99.70
40960;DHT22;27842;52.272;8.052;2023-07-02T01:49:45;17.30;99.60
40960;DHT22;27842;52.272;8.052;2023-07-02T01:52:10;17.40;99.90
40960;DHT22;27842;52.272;8.052;2023-07-02T01:54:36;17.40;99.90
40960;DHT22;27842;52.272;8.052;2023-07-02T01:57:02;17.40;99.60
40960;DHT22;27842;52.272;8.052;2023-07-02T01:59:27;17.40;99.60
40960;DHT22;27842;52.272;8.052;2023-07-02T02:01:53;17.40;99.60
40960;DHT22;27842;52.272;8.052;2023-07-02T02:04:18;17.40;99.60
40960;DHT22;27842;52.272;8.052;2023-07-02T02:06:44;17.40;99.60
40960;DHT22;27842;52.272;8.052;2023-07-02T02:09:09;17.40;99.60
40960;DHT22;27842;52.272;8.052;2023-07-02T02:11:38;17.40;99.90
40960;DHT22;27842;52.272;8.052;2023-07-02T02:14:04;17.40;99.90
40960;DHT22;27842;52.272;8.052;2023-07-02T02:16:29;17.40;99.90
40960;DHT22;27842;52.272;8.052;2023-07-02T02:18:55;17.40;99.60
40960;DHT22;27842;52.272;8.052;2023-07-02T02:21:20;17.40;99.70
40960;DHT22;27842;52.272;8.052;2023-07-02T02:23:46;17.50;99.80
40960;DHT22;27842;52.272;8.052;2023-07-02T02:26:12;17.40;99.70
40960;DHT22;27842;52.272;8.052;2023-07-02T02:28:37;17.40;99.60
40960;DHT22;27842;52.272;8.052;2023-07-02T02:31:03;17.40;99.60
40960;DHT22;27842;52.272;8.052;2023-07-02T02:33:28;17.50;99.90
40960;DHT22;27842;52.272;8.052;2023-07-02T02:35:54;17.40;99.90
40960;DHT22;27842;52.272;8.052;2023-07-02T02:38:19;17.40;99.90
40960;DHT22;27842;52.272;8.052;2023-07-02T02:40:45;17.40;99.90
40960;DHT22;27842;52.272;8.052;2023-07-02T02:43:10;17.40;99.90
40960;DHT22;27842;52.272;8.052;2023-07-02T02:45:35;17.30;99.90
40960;DHT22;27842;52.272;8.052;2023-07-02T02:48:01;17.30;99.90
40960;DHT22;27842;52.272;8.052;2023-07-02T02:50:26;17.20;99.90
40960;DHT22;27842;52.272;8.052;2023-07-02T02:52:52;17.20;99.90
40960;DHT22;27842;52.272;8.052;2023-07-02T02:55:18;17.10;99.90
40960;DHT22;27842;52.272;8.052;2023-07-02T02:57:43;17.10;99.90
40960;DHT22;27842;52.272;8.052;2023-07-02T03:00:09;17.10;99.90
40960;DHT22;27842;52.272;8.052;2023-07-02T03:02:35;17.00;99.90
40960;DHT22;27842;52.272;8.052;2023-07-02T03:05:01;17.00;99.90
40960;DHT22;27842;52.272;8.052;2023-07-02T03:07:28;17.00;99.90
40960;DHT22;27842;52.272;8.052;2023-07-02T03:09:54;17.00;99.90
40960;DHT22;27842;52.272;8.052;2023-07-02T03:12:19;17.00;99.90
40960;DHT22;27842;52.272;8.052;2023-07-02T03:14:45;16.90;99.90
40960;DHT22;27842;52.272;8.052;2023-07-02T03:17:10;16.90;99.90
40960;DHT22;27842;52.272;8.052;2023-07-02T03:19:35;16.90;99.90
40960;DHT22;27842;52.272;8.052;2023-07-02T03:22:01;16.90;99.90
40960;DHT22;27842;52.272;8.052;2023-07-02T03:24:27;16.80;99.90
40960;DHT22;27842;52.272;8.052;2023-07-02T03:26:52;16.80;99.90
40960;DHT22;27842;52.272;8.052;2023-07-02T03:29:18;16.80;99.90
40960;DHT22;27842;52.272;8.052;2023-07-02T03:31:45;16.80;99.90
40960;DHT22;27842;52.272;8.052;2023-07-02T03:34:11;16.80;99.90
40960;DHT22;27842;52.272;8.052;2023-07-02T03:36:37;16.80;99.90
40960;DHT22;27842;52.272;8.052;2023-07-02T03:39:02;16.80;99.90
40960;DHT22;27842;52.272;8.052;2023-07-02T03:41:28;16.80;99.90
40960;DHT22;27842;52.272;8.052;2023-07-02T03:43:54;16.70;99.90
40960;DHT22;27842;52.272;8.052;2023-07-02T03:46:19;16.80;99.90
40960;DHT22;27842;52.272;8.052;2023-07-02T03:48:45;16.70;99.90
40960;DHT22;27842;52.272;8.052;2023-07-02T03:51:10;16.80;99.90
40960;DHT22;27842;52.272;8.052;2023-07-02T03:53:37;16.70;99.90
40960;DHT22;27842;52.272;8.052;2023-07-02T03:56:03;16.70;99.90
40960;DHT22;27842;52.272;8.052;2023-07-02T03:58:29;16.70;99.90
40960;DHT22;27842;52.272;8.052;2023-07-02T04:00:54;16.70;99.90
40960;DHT22;27842;52.272;8.052;2023-07-02T04:03:19;16.70;99.90
40960;DHT22;27842;52.272;8.052;2023-07-02T04:05:45;16.70;99.90
40960;DHT22;27842;52.272;8.052;2023-07-02T04:08:10;16.70;99.90
40960;DHT22;27842;52.272;8.052;2023-07-02T04:10:36;16.70;99.90
40960;DHT22;27842;52.272;8.052;2023-07-02T04:13:01;16.80;99.90
40960;DHT22;27842;52.272;8.052;2023-07-02T04:15:27;16.70;99.90
40960;DHT22;27842;52.272;8.052;2023-07-02T04:17:52;16.70;99.90
40960;DHT22;27842;52.272;8.052;2023-07-02T04:20:18;16.70;99.90
40960;DHT22;27842;52.272;8.052;2023-07-02T04:22:47;16.70;99.90
40960;DHT22;27842;52.272;8.052;2023-07-02T04:25:13;16.70;99.90
40960;DHT22;27842;52.272;8.052;2023-07-02T04:27:41;16.70;99.90
40960;DHT22;27842;52.272;8.052;2023-07-02T04:30:08;16.70;99.90
40960;DHT22;27842;52.272;8.052;2023-07-02T04:32:33;16.70;99.90
40960;DHT22;27842;52.272;8.052;2023-07-02T04:34:59;16.70;99.90
40960;DHT22;27842;52.272;8.052;2023-07-02T04:37:24;16.70;99.90
40960;DHT22;27842;52.272;8.052;2023-07-02T04:39:50;16.70;99.90
40960;DHT22;27842;52.272;8.052;2023-07-02T04:42:15;16.70;99.90
40960;DHT22;27842;52.272;8.052;2023-07-02T04:44:41;16.70;99.90
40960;DHT22;27842;52.272;8.052;2023-07-02T04:47:08;16.70;99.90
40960;DHT22;27842;52.272;8.052;2023-07-02T04:49:34;16.70;99.90
40960;DHT22;27842;52.272;8.052;2023-07-02T04:51:59;16.70;99.90
40960;DHT22;27842;52.272;8.052;2023-07-02T04:54:24;16.70;99.90
40960;DHT22;27842;52.272;8.052;2023-07-02T04:56:50;16.70;99.90
40960;DHT22;27842;52.272;8.052;2023-07-02T04:59:16;16.70;99.90
40960;DHT22;27842;52.272;8.052;2023-07-02T05:01:41;16.70;99.90
40960;DHT22;27842;52.272;8.052;2023-07-02T05:04:09;16.70;99.90
40960;DHT22;27842;52.272;8.052;2023-07-02T05:06:34;16.60;99.90
40960;DHT22;27842;52.272;8.052;2023-07-02T05:09:00;16.70;99.90
40960;DHT22;27842;52.272;8.052;2023-07-02T05:11:25;16.70;99.90
40960;DHT22;27842;52.272;8.052;2023-07-02T05:13:51;16.70;99.90
40960;DHT22;27842;52.272;8.052;2023-07-02T05:16:16;16.70;99.90
40960;DHT22;27842;52.272;8.052;2023-07-02T05:18:42;16.60;99.90
40960;DHT22;27842;52.272;8.052;2023-07-02T05:21:07;16.70;99.90
40960;DHT22;27842;52.272;8.052;2023-07-02T05:23:32;16.70;99.90
40960;DHT22;27842;52.272;8.052;2023-07-02T05:25:58;16.70;99.90
40960;DHT22;27842;52.272;8.052;2023-07-02T05:28:24;16.70;99.90
40960;DHT22;27842;52.272;8.052;2023-07-02T05:30:50;16.70;99.90
40960;DHT22;27842;52.272;8.052;2023-07-02T05:33:15;16.80;99.90
40960;DHT22;27842;52.272;8.052;2023-07-02T05:35:41;16.80;99.90
40960;DHT22;27842;52.272;8.052;2023-07-02T05:38:06;16.80;99.90
40960;DHT22;27842;52.272;8.052;2023-07-02T05:40:32;16.80;99.90
40960;DHT22;27842;52.272;8.052;2023-07-02T05:42:57;16.80;99.90
40960;DHT22;27842;52.272;8.052;2023-07-02T05:45:23;16.80;99.90
40960;DHT22;27842;52.272;8.052;2023-07-02T05:47:48;16.80;99.90
40960;DHT22;27842;52.272;8.052;2023-07-02T05:50:14;16.90;99.90
40960;DHT22;27842;52.272;8.052;2023-07-02T05:52:40;16.80;99.90
40960;DHT22;27842;52.272;8.052;2023-07-02T05:55:07;16.80;99.90
40960;DHT22;27842;52.272;8.052;2023-07-02T05:57:32;16.80;99.90
40960;DHT22;27842;52.272;8.052;2023-07-02T05:59:58;16.90;99.80
40960;DHT22;27842;52.272;8.052;2023-07-02T06:02:23;16.90;99.80
40960;DHT22;27842;52.272;8.052;2023-07-02T06:04:49;16.90;99.80
40960;DHT22;27842;52.272;8.052;2023-07-02T06:07:14;17.00;99.70
40960;DHT22;27842;52.272;8.052;2023-07-02T06:09:40;17.00;99.30
40960;DHT22;27842;52.272;8.052;2023-07-02T06:12:05;17.00;99.60
40960;DHT22;27842;52.272;8.052;2023-07-02T06:14:31;17.10;99.40
40960;DHT22;27842;52.272;8.052;2023-07-02T06:16:56;17.10;99.40
40960;DHT22;27842;52.272;8.052;2023-07-02T06:19:22;17.10;99.40
40960;DHT22;27842;52.272;8.052;2023-07-02T06:21:48;17.10;99.40
40960;DHT22;27842;52.272;8.052;2023-07-02T06:24:13;17.20;99.20
40960;DHT22;27842;52.272;8.052;2023-07-02T06:26:39;17.20;99.00
40960;DHT22;27842;52.272;8.052;2023-07-02T06:29:04;17.20;99.00
40960;DHT22;27842;52.272;8.052;2023-07-02T06:31:30;17.20;98.60
40960;DHT22;27842;52.272;8.052;2023-07-02T06:33:55;17.30;98.70
40960;DHT22;27842;52.272;8.052;2023-07-02T06:36:21;17.30;98.60
40960;DHT22;27842;52.272;8.052;2023-07-02T06:38:46;17.40;98.40
40960;DHT22;27842;52.272;8.052;2023-07-02T06:41:12;17.40;98.50
40960;DHT22;27842;52.272;8.052;2023-07-02T06:43:37;17.50;98.20
40960;DHT22;27842;52.272;8.052;2023-07-02T06:46:03;17.50;98.30
40960;DHT22;27842;52.272;8.052;2023-07-02T06:48:28;17.60;98.00
40960;DHT22;27842;52.272;8.052;2023-07-02T06:50:55;17.70;97.70
40960;DHT22;27842;52.272;8.052;2023-07-02T06:53:20;17.80;97.20
40960;DHT22;27842;52.272;8.052;2023-07-02T06:55:46;17.80;97.40
40960;DHT22;27842;52.272;8.052;2023-07-02T06:58:11;17.80;97.30
40960;DHT22;27842;52.272;8.052;2023-07-02T07:00:37;17.90;96.90
40960;DHT22;27842;52.272;8.052;2023-07-02T07:03:05;18.00;95.40
40960;DHT22;27842;52.272;8.052;2023-07-02T07:05:31;18.10;96.60
40960;DHT22;27842;52.272;8.052;2023-07-02T07:07:56;18.10;96.50
40960;DHT22;27842;52.272;8.052;2023-07-02T07:10:22;18.20;96.00
40960;DHT22;27842;52.272;8.052;2023-07-02T07:12:47;18.30;96.30
40960;DHT22;27842;52.272;8.052;2023-07-02T07:15:13;18.30;96.20
40960;DHT22;27842;52.272;8.052;2023-07-02T07:17:38;18.30;96.10
40960;DHT22;27842;52.272;8.052;2023-07-02T07:20:04;18.40;95.60
40960;DHT22;27842;52.272;8.052;2023-07-02T07:22:30;18.50;95.90
40960;DHT22;27842;52.272;8.052;2023-07-02T07:24:56;18.60;95.70
40960;DHT22;27842;52.272;8.052;2023-07-02T07:27:21;18.60;94.70
40960;DHT22;27842;52.272;8.052;2023-07-02T07:29:47;18.60;95.40
40960;DHT22;27842;52.272;8.052;2023-07-02T07:32:12;18.70;95.40
40960;DHT22;27842;52.272;8.052;2023-07-02T07:34:38;18.80;95.20
40960;DHT22;27842;52.272;8.052;2023-07-02T07:37:03;18.80;94.50
40960;DHT22;27842;52.272;8.052;2023-07-02T07:39:29;18.90;94.10
40960;DHT22;27842;52.272;8.052;2023-07-02T07:41:54;18.90;94.10
40960;DHT22;27842;52.272;8.052;2023-07-02T07:44:19;18.90;92.30
40960;DHT22;27842;52.272;8.052;2023-07-02T07:46:45;18.90;93.10
40960;DHT22;27842;52.272;8.052;2023-07-02T07:49:12;18.90;93.20
40960;DHT22;27842;52.272;8.052;2023-07-02T07:51:38;19.00;94.00
40960;DHT22;27842;52.272;8.052;2023-07-02T07:54:03;19.10;93.30
40960;DHT22;27842;52.272;8.052;2023-07-02T07:56:29;19.10;92.60
40960;DHT22;27842;52.272;8.052;2023-07-02T07:58:54;19.20;91.90
40960;DHT22;27842;52.272;8.052;2023-07-02T08:01:20;19.30;92.10
40960;DHT22;27842;52.272;8.052;2023-07-02T08:03:46;19.40;92.50
40960;DHT22;27842;52.272;8.052;2023-07-02T08:06:11;19.40;89.20
40960;DHT22;27842;52.272;8.052;2023-07-02T08:08:37;19.50;91.90
40960;DHT22;27842;52.272;8.052;2023-07-02T08:11:02;19.50;90.90
40960;DHT22;27842;52.272;8.052;2023-07-02T08:13:28;19.50;91.10
40960;DHT22;27842;52.272;8.052;2023-07-02T08:15:54;19.50;90.50
40960;DHT22;27842;52.272;8.052;2023-07-02T08:18:20;19.60;90.80
40960;DHT22;27842;52.272;8.052;2023-07-02T08:20:45;19.60;88.90
40960;DHT22;27842;52.272;8.052;2023-07-02T08:23:11;19.60;90.70
40960;DHT22;27842;52.272;8.052;2023-07-02T08:25:37;19.60;89.20
40960;DHT22;27842;52.272;8.052;2023-07-02T08:28:02;19.60;89.50
40960;DHT22;27842;52.272;8.052;2023-07-02T08:30:28;19.70;89.50
40960;DHT22;27842;52.272;8.052;2023-07-02T08:32:53;19.80;86.10
40960;DHT22;27842;52.272;8.052;2023-07-02T08:35:20;19.80;87.80
40960;DHT22;27842;52.272;8.052;2023-07-02T08:37:45;19.80;87.50
40960;DHT22;27842;52.272;8.052;2023-07-02T08:40:18;19.80;88.60
40960;DHT22;27842;52.272;8.052;2023-07-02T08:42:44;19.70;88.20
40960;DHT22;27842;52.272;8.052;2023-07-02T08:45:10;19.80;83.30
40960;DHT22;27842;52.272;8.052;2023-07-02T08:47:35;19.90;84.30
40960;DHT22;27842;52.272;8.052;2023-07-02T08:50:01;20.00;84.50
40960;DHT22;27842;52.272;8.052;2023-07-02T08:52:28;20.10;86.00
40960;DHT22;27842;52.272;8.052;2023-07-02T08:54:53;20.20;87.40
40960;DHT22;27842;52.272;8.052;2023-07-02T08:57:19;20.30;87.00
40960;DHT22;27842;52.272;8.052;2023-07-02T08:59:46;20.40;83.70
40960;DHT22;27842;52.272;8.052;2023-07-02T09:02:13;20.40;82.90
40960;DHT22;27842;52.272;8.052;2023-07-02T09:04:38;20.40;85.70
40960;DHT22;27842;52.272;8.052;2023-07-02T09:07:05;20.40;81.20
40960;DHT22;27842;52.272;8.052;2023-07-02T09:09:30;20.30;81.30
40960;DHT22;27842;52.272;8.052;2023-07-02T09:11:56;20.20;75.90
40960;DHT22;27842;52.272;8.052;2023-07-02T09:14:28;20.20;82.50
40960;DHT22;27842;52.272;8.052;2023-07-02T09:17:04;20.20;85.70
40960;DHT22;27842;52.272;8.052;2023-07-02T09:19:30;20.30;85.30
40960;DHT22;27842;52.272;8.052;2023-07-02T09:21:57;20.30;83.80
40960;DHT22;27842;52.272;8.052;2023-07-02T09:24:24;20.40;81.20
40960;DHT22;27842;52.272;8.052;2023-07-02T09:26:51;20.50;82.30
40960;DHT22;27842;52.272;8.052;2023-07-02T09:29:24;20.40;81.80
40960;DHT22;27842;52.272;8.052;2023-07-02T09:31:49;20.50;82.30
40960;DHT22;27842;52.272;8.052;2023-07-02T09:34:15;20.50;79.30
40960;DHT22;27842;52.272;8.052;2023-07-02T09:36:40;20.50;77.60
40960;DHT22;27842;52.272;8.052;2023-07-02T09:39:07;20.50;74.70
40960;DHT22;27842;52.272;8.052;2023-07-02T09:41:33;20.40;79.50
40960;DHT22;27842;52.272;8.052;2023-07-02T09:43:59;20.40;81.00
40960;DHT22;27842;52.272;8.052;2023-07-02T09:46:25;20.30;79.10
40960;DHT22;27842;52.272;8.052;2023-07-02T09:48:51;20.20;81.70
40960;DHT22;27842;52.272;8.052;2023-07-02T09:51:17;20.20;81.20
40960;DHT22;27842;52.272;8.052;2023-07-02T09:53:42;20.20;81.80
40960;DHT22;27842;52.272;8.052;2023-07-02T09:56:08;20.20;81.60
40960;DHT22;27842;52.272;8.052;2023-07-02T09:58:34;20.30;78.70
40960;DHT22;27842;52.272;8.052;2023-07-02T10:00:59;20.40;82.30
40960;DHT22;27842;52.272;8.052;2023-07-02T10:03:29;20.30;76.20
40960;DHT22;27842;52.272;8.052;2023-07-02T10:06:04;20.30;80.80
40960;DHT22;27842;52.272;8.052;2023-07-02T10:08:30;20.30;81.80
40960;DHT22;27842;52.272;8.052;2023-07-02T10:11:09;20.30;80.50
40960;DHT22;27842;52.272;8.052;2023-07-02T10:13:34;20.30;81.80
40960;DHT22;27842;52.272;8.052;2023-07-02T10:16:00;20.30;78.60
40960;DHT22;27842;52.272;8.052;2023-07-02T10:18:26;20.20;78.50
40960;DHT22;27842;52.272;8.052;2023-07-02T10:20:51;20.20;80.20
40960;DHT22;27842;52.272;8.052;2023-07-02T10:23:17;20.10;77.20
40960;DHT22;27842;52.272;8.052;2023-07-02T10:25:42;20.10;78.30
40960;DHT22;27842;52.272;8.052;2023-07-02T10:28:15;20.20;81.60
40960;DHT22;27842;52.272;8.052;2023-07-02T10:30:41;20.20;76.70
40960;DHT22;27842;52.272;8.052;2023-07-02T10:33:10;20.10;79.90
40960;DHT22;27842;52.272;8.052;2023-07-02T10:35:36;20.20;80.90
40960;DHT22;27842;52.272;8.052;2023-07-02T10:38:02;20.20;79.70
40960;DHT22;27842;52.272;8.052;2023-07-02T10:40:27;20.10;80.80
40960;DHT22;27842;52.272;8.052;2023-07-02T10:42:54;20.10;80.10
40960;DHT22;27842;52.272;8.052;2023-07-02T10:45:20;20.10;80.30
40960;DHT22;27842;52.272;8.052;2023-07-02T10:47:46;20.10;80.50
40960;DHT22;27842;52.272;8.052;2023-07-02T10:50:18;20.20;81.10
40960;DHT22;27842;52.272;8.052;2023-07-02T10:52:43;20.20;80.30
40960;DHT22;27842;52.272;8.052;2023-07-02T10:55:09;20.20;80.40
40960;DHT22;27842;52.272;8.052;2023-07-02T10:57:35;20.20;80.40
40960;DHT22;27842;52.272;8.052;2023-07-02T11:00:06;20.30;80.50
40960;DHT22;27842;52.272;8.052;2023-07-02T11:02:36;20.30;74.80
40960;DHT22;27842;52.272;8.052;2023-07-02T11:05:02;20.40;80.00
40960;DHT22;27842;52.272;8.052;2023-07-02T11:07:28;20.40;78.20
40960;DHT22;27842;52.272;8.052;2023-07-02T11:09:53;20.50;76.70
40960;DHT22;27842;52.272;8.052;2023-07-02T11:12:26;20.50;79.80
40960;DHT22;27842;52.272;8.052;2023-07-02T11:14:52;20.60;79.20
40960;DHT22;27842;52.272;8.052;2023-07-02T11:17:24;20.70;78.10
40960;DHT22;27842;52.272;8.052;2023-07-02T11:19:50;20.80;78.20
40960;DHT22;27842;52.272;8.052;2023-07-02T11:22:16;21.00;77.80
40960;DHT22;27842;52.272;8.052;2023-07-02T11:24:41;21.20;77.90
40960;DHT22;27842;52.272;8.052;2023-07-02T11:27:07;21.30;77.90
40960;DHT22;27842;52.272;8.052;2023-07-02T11:29:33;21.40;75.90
40960;DHT22;27842;52.272;8.052;2023-07-02T11:32:05;21.40;75.10
40960;DHT22;27842;52.272;8.052;2023-07-02T11:34:31;21.30;73.40
40960;DHT22;27842;52.272;8.052;2023-07-02T11:36:56;21.30;74.50
40960;DHT22;27842;52.272;8.052;2023-07-02T11:39:22;21.20;74.70
40960;DHT22;27842;52.272;8.052;2023-07-02T11:41:47;21.10;74.20
40960;DHT22;27842;52.272;8.052;2023-07-02T11:44:13;21.10;74.60
40960;DHT22;27842;52.272;8.052;2023-07-02T11:46:39;21.10;76.20
40960;DHT22;27842;52.272;8.052;2023-07-02T11:49:04;21.20;73.80
40960;DHT22;27842;52.272;8.052;2023-07-02T11:51:30;21.30;71.40
40960;DHT22;27842;52.272;8.052;2023-07-02T11:53:56;21.40;74.60
40960;DHT22;27842;52.272;8.052;2023-07-02T11:56:22;21.50;71.70
40960;DHT22;27842;52.272;8.052;2023-07-02T11:58:47;21.60;74.70
40960;DHT22;27842;52.272;8.052;2023-07-02T12:01:12;21.60;73.10
40960;DHT22;27842;52.272;8.052;2023-07-02T12:03:38;21.70;68.90
40960;DHT22;27842;52.272;8.052;2023-07-02T12:06:03;21.90;74.20
40960;DHT22;27842;52.272;8.052;2023-07-02T12:08:30;22.20;70.00
40960;DHT22;27842;52.272;8.052;2023-07-02T12:10:55;22.30;71.90
40960;DHT22;27842;52.272;8.052;2023-07-02T12:13:21;22.50;72.30
40960;DHT22;27842;52.272;8.052;2023-07-02T12:15:47;22.60;68.80
40960;DHT22;27842;52.272;8.052;2023-07-02T12:18:12;22.70;65.40
40960;DHT22;27842;52.272;8.052;2023-07-02T12:20:41;22.80;67.30
40960;DHT22;27842;52.272;8.052;2023-07-02T12:23:06;23.00;70.60
40960;DHT22;27842;52.272;8.052;2023-07-02T12:25:32;23.10;70.50
40960;DHT22;27842;52.272;8.052;2023-07-02T12:27:57;23.30;67.00
40960;DHT22;27842;52.272;8.052;2023-07-02T12:30:23;23.30;67.00
40960;DHT22;27842;52.272;8.052;2023-07-02T12:32:48;23.30;69.00
40960;DHT22;27842;52.272;8.052;2023-07-02T12:35:14;23.40;69.20
40960;DHT22;27842;52.272;8.052;2023-07-02T12:37:46;23.30;66.80
40960;DHT22;27842;52.272;8.052;2023-07-02T12:40:12;23.20;66.30
40960;DHT22;27842;52.272;8.052;2023-07-02T12:42:38;23.00;69.00
40960;DHT22;27842;52.272;8.052;2023-07-02T12:45:05;22.90;69.80
40960;DHT22;27842;52.272;8.052;2023-07-02T12:47:30;22.80;67.70
40960;DHT22;27842;52.272;8.052;2023-07-02T12:49:56;22.70;69.90
40960;DHT22;27842;52.272;8.052;2023-07-02T12:52:21;22.70;66.90
40960;DHT22;27842;52.272;8.052;2023-07-02T12:54:47;22.70;61.90
40960;DHT22;27842;52.272;8.052;2023-07-02T12:57:12;22.80;67.60
40960;DHT22;27842;52.272;8.052;2023-07-02T12:59:38;23.00;69.00
40960;DHT22;27842;52.272;8.052;2023-07-02T13:02:03;23.20;67.90
40960;DHT22;27842;52.272;8.052;2023-07-02T13:04:29;23.30;64.60
40960;DHT22;27842;52.272;8.052;2023-07-02T13:06:54;23.40;67.30
40960;DHT22;27842;52.272;8.052;2023-07-02T13:09:20;23.50;67.70
40960;DHT22;27842;52.272;8.052;2023-07-02T13:11:45;23.60;63.30
40960;DHT22;27842;52.272;8.052;2023-07-02T13:14:11;23.50;62.70
40960;DHT22;27842;52.272;8.052;2023-07-02T13:16:36;23.30;64.90
40960;DHT22;27842;52.272;8.052;2023-07-02T13:19:02;23.30;60.90
40960;DHT22;27842;52.272;8.052;2023-07-02T13:21:28;23.20;66.70
40960;DHT22;27842;52.272;8.052;2023-07-02T13:23:53;23.20;67.00
40960;DHT22;27842;52.272;8.052;2023-07-02T13:26:18;23.20;67.30
40960;DHT22;27842;52.272;8.052;2023-07-02T13:28:45;23.20;63.20
40960;DHT22;27842;52.272;8.052;2023-07-02T13:31:13;23.10;67.20
40960;DHT22;27842;52.272;8.052;2023-07-02T13:33:38;23.00;66.10
40960;DHT22;27842;52.272;8.052;2023-07-02T13:36:04;23.00;67.80
40960;DHT22;27842;52.272;8.052;2023-07-02T13:38:31;22.80;68.00
40960;DHT22;27842;52.272;8.052;2023-07-02T13:40:56;22.80;66.80
40960;DHT22;27842;52.272;8.052;2023-07-02T13:43:24;22.90;68.00
40960;DHT22;27842;52.272;8.052;2023-07-02T13:45:49;23.00;67.50
40960;DHT22;27842;52.272;8.052;2023-07-02T13:48:15;23.00;65.00
40960;DHT22;27842;52.272;8.052;2023-07-02T13:50:40;23.10;64.30
40960;DHT22;27842;52.272;8.052;2023-07-02T13:53:06;23.10;64.50
40960;DHT22;27842;52.272;8.052;2023-07-02T13:55:31;23.00;62.40
40960;DHT22;27842;52.272;8.052;2023-07-02T13:57:57;23.00;64.00
40960;DHT22;27842;52.272;8.052;2023-07-02T14:00:23;22.90;65.60
40960;DHT22;27842;52.272;8.052;2023-07-02T14:02:48;22.80;61.00
40960;DHT22;27842;52.272;8.052;2023-07-02T14:05:14;22.80;65.50
40960;DHT22;27842;52.272;8.052;2023-07-02T14:07:40;22.80;66.40
40960;DHT22;27842;52.272;8.052;2023-07-02T14:10:06;23.00;65.20
40960;DHT22;27842;52.272;8.052;2023-07-02T14:12:31;23.10;63.70
40960;DHT22;27842;52.272;8.052;2023-07-02T14:14:57;23.30;65.90
40960;DHT22;27842;52.272;8.052;2023-07-02T14:17:22;23.40;64.60
40960;DHT22;27842;52.272;8.052;2023-07-02T14:19:48;23.50;65.20
40960;DHT22;27842;52.272;8.052;2023-07-02T14:22:14;23.60;62.90
40960;DHT22;27842;52.272;8.052;2023-07-02T14:24:39;23.60;65.00
40960;DHT22;27842;52.272;8.052;2023-07-02T14:27:05;23.80;63.90
40960;DHT22;27842;52.272;8.052;2023-07-02T14:29:30;23.90;64.40
40960;DHT22;27842;52.272;8.052;2023-07-02T14:31:56;24.00;62.90
40960;DHT22;27842;52.272;8.052;2023-07-02T14:34:21;24.10;61.60
40960;DHT22;27842;52.272;8.052;2023-07-02T14:36:47;24.00;62.80
40960;DHT22;27842;52.272;8.052;2023-07-02T14:39:13;24.00;62.60
40960;DHT22;27842;52.272;8.052;2023-07-02T14:41:38;24.00;60.50
40960;DHT22;27842;52.272;8.052;2023-07-02T14:44:04;24.10;60.30
40960;DHT22;27842;52.272;8.052;2023-07-02T14:46:30;24.00;63.00
40960;DHT22;27842;52.272;8.052;2023-07-02T14:48:55;23.90;59.50
40960;DHT22;27842;52.272;8.052;2023-07-02T14:51:21;23.90;62.70
40960;DHT22;27842;52.272;8.052;2023-07-02T14:53:46;24.00;62.70
40960;DHT22;27842;52.272;8.052;2023-07-02T14:56:12;23.90;60.80
40960;DHT22;27842;52.272;8.052;2023-07-02T14:58:37;23.90;62.20
40960;DHT22;27842;52.272;8.052;2023-07-02T15:01:03;23.90;63.00
40960;DHT22;27842;52.272;8.052;2023-07-02T15:03:29;23.90;62.30
40960;DHT22;27842;52.272;8.052;2023-07-02T15:05:55;23.90;61.60
40960;DHT22;27842;52.272;8.052;2023-07-02T15:08:29;23.80;62.30
40960;DHT22;27842;52.272;8.052;2023-07-02T15:10:55;23.80;60.40
40960;DHT22;27842;52.272;8.052;2023-07-02T15:13:20;23.60;61.00
40960;DHT22;27842;52.272;8.052;2023-07-02T15:15:48;23.50;63.30
40960;DHT22;27842;52.272;8.052;2023-07-02T15:18:13;23.50;63.90
40960;DHT22;27842;52.272;8.052;2023-07-02T15:20:39;23.40;64.10
40960;DHT22;27842;52.272;8.052;2023-07-02T15:23:05;23.40;63.70